Time;durP1;ratioP1;P1;durP2;ratioP2;P2;SDS_P1;SDS_P2;PMS_P1;PMS_P2;Temp;Humidity;BMP_temperature;BMP_pressure;BME280_temperature;BME280_humidity;BME280_pressure;Samples;Min_cycle;Max_cycle;Signal;HPM_P1;HPM_P2
2021/04/19 00:00:00;;;;;;;67.10;38.97;;;;;;;5.88;76.01;99103.27;2227320;80;21391;-79
2021/04/19 00:03:01;;;;;;;80.37;43.93;;;;;;;5.88;75.98;99099.79;2226765;80;21093;-79
2021/04/19 00:06:02;;;;;;;78.63;43.23;;;;;;;5.89;75.95;99091.19;2226553;80;21109;-80
2021/04/19 00:09:03;;;;;;;101.73;54.00;;;;;;;5.91;76.12;99085.68;2226198;80;21129;-78
2021/04/19 00:12:04;;;;;;;177.60;100.43;;;;;;;5.93;76.14;99083.61;2226279;80;21359;-78
2021/04/19 00:15:05;;;;;;;129.97;71.03;;;;;;;5.94;76.13;99076.30;2226754;80;21148;-79
2021/04/19 00:18:06;;;;;;;108.20;65.57;;;;;;;5.93;76.05;99069.77;2226985;80;21136;-80
2021/04/19 00:21:07;;;;;;;104.60;58.90;;;;;;;5.90;76.07;99069.25;2226806;80;21093;-79
2021/04/19 00:24:08;;;;;;;92.93;52.20;;;;;;;5.90;76.07;99063.19;2227050;80;21363;-79
2021/04/19 00:27:09;;;;;;;80.80;43.47;;;;;;;5.88;75.98;99060.52;2226925;80;21098;-79
2021/04/19 00:30:11;;;;;;;81.23;41.67;;;;;;;5.85;75.97;99059.12;2226897;80;21205;-79
2021/04/19 00:33:12;;;;;;;86.40;44.23;;;;;;;5.81;75.92;99053.37;2226550;80;21098;-78
2021/04/19 00:36:13;;;;;;;76.63;44.63;;;;;;;5.83;76.11;99053.42;2226475;80;21078;-78
2021/04/19 00:39:14;;;;;;;79.67;45.43;;;;;;;5.84;76.14;99058.66;2235124;79;21128;-79
2021/04/19 00:42:15;;;;;;;72.63;43.53;;;;;;;5.86;76.19;99050.52;2258165;79;21101;-79
2021/04/19 00:45:16;;;;;;;76.87;46.00;;;;;;;5.90;76.10;99056.72;2258266;79;21092;-78
2021/04/19 00:48:17;;;;;;;71.87;42.50;;;;;;;5.94;76.26;99051.69;2258005;78;21093;-79
2021/04/19 00:51:18;;;;;;;66.43;39.37;;;;;;;6.00;76.10;99056.19;2257838;79;21351;-79
2021/04/19 00:54:19;;;;;;;60.57;36.33;;;;;;;6.04;76.18;99051.58;2257786;79;21260;-79
2021/04/19 00:57:20;;;;;;;52.47;33.77;;;;;;;6.10;76.05;99051.80;2258191;79;21112;-80
2021/04/19 01:00:21;;;;;;;67.87;40.57;;;;;;;6.14;76.16;99052.79;2257977;79;21101;-78
2021/04/19 01:03:22;;;;;;;62.37;38.07;;;;;;;6.16;76.18;99057.19;2258230;79;21092;-79
2021/04/19 01:06:23;;;;;;;74.40;44.27;;;;;;;6.22;76.33;99056.51;2258070;79;21109;-78
2021/04/19 01:09:24;;;;;;;69.70;41.03;;;;;;;6.23;76.24;99055.67;2258109;79;21297;-79
2021/04/19 01:12:25;;;;;;;73.73;41.53;;;;;;;6.26;76.43;99056.66;2258123;79;21068;-79
2021/04/19 01:15:27;;;;;;;74.20;43.30;;;;;;;6.30;76.47;99052.03;2257818;79;21142;-78
2021/04/19 01:18:28;;;;;;;65.30;41.07;;;;;;;6.33;76.59;99048.66;2257816;79;21371;-79
2021/04/19 01:21:29;;;;;;;62.90;39.20;;;;;;;6.41;76.72;99043.72;2257862;79;21109;-79
2021/04/19 01:24:30;;;;;;;61.70;37.37;;;;;;;6.44;76.62;99043.39;2257865;79;21081;-78
2021/04/19 01:27:31;;;;;;;62.53;37.53;;;;;;;6.43;76.76;99040.75;2258085;78;21100;-78
2021/04/19 01:30:32;;;;;;;62.87;38.33;;;;;;;6.44;76.84;99032.14;2258032;79;21095;-78
2021/04/19 01:33:33;;;;;;;65.63;37.77;;;;;;;6.45;77.03;99028.72;2258011;79;21136;-79
2021/04/19 01:36:34;;;;;;;67.00;37.93;;;;;;;6.46;77.12;99028.77;2258046;79;21097;-79
2021/04/19 01:39:35;;;;;;;62.47;37.40;;;;;;;6.50;77.35;99022.84;2258320;78;21122;-79
2021/04/19 01:42:36;;;;;;;63.53;35.90;;;;;;;6.53;77.31;99028.53;2258127;79;21386;-78
2021/04/19 01:45:37;;;;;;;72.87;39.30;;;;;;;6.55;77.30;99020.38;2257924;79;21116;-78
2021/04/19 01:48:38;;;;;;;72.27;39.67;;;;;;;6.55;77.33;99020.38;2258029;79;21101;-78
2021/04/19 01:51:39;;;;;;;64.77;38.13;;;;;;;6.59;77.50;99015.75;2258031;78;21505;-78
2021/04/19 01:54:40;;;;;;;60.17;36.40;;;;;;;6.65;77.59;99011.63;2258024;79;21156;-78
2021/04/19 01:57:41;;;;;;;66.10;38.93;;;;;;;6.69;77.38;99005.70;2258523;79;21100;-77
2021/04/19 02:00:42;;;;;;;73.03;39.03;;;;;;;6.75;77.48;99005.00;2258727;79;21097;-78
2021/04/19 02:03:43;;;;;;;68.03;37.73;;;;;;;6.78;77.48;99003.79;2258761;79;21128;-79
2021/04/19 02:06:45;;;;;;;66.73;37.27;;;;;;;6.83;77.44;99004.80;2258673;78;21101;-79
2021/04/19 02:09:46;;;;;;;72.87;39.57;;;;;;;6.83;77.19;99002.20;2258571;79;21097;-79
2021/04/19 02:12:47;;;;;;;65.47;38.40;;;;;;;6.82;77.26;99005.64;2258454;79;21116;-79
2021/04/19 02:15:48;;;;;;;67.83;38.03;;;;;;;6.81;77.28;99000.41;2258106;79;21132;-79
2021/04/19 02:18:49;;;;;;;62.27;38.07;;;;;;;6.80;77.66;98993.45;2258446;78;21127;-79
2021/04/19 02:21:50;;;;;;;75.33;43.17;;;;;;;6.80;77.66;98993.45;2258326;79;21096;-79
2021/04/19 02:24:52;;;;;;;81.80;47.53;;;;;;;6.80;77.19;98988.27;2258424;78;21080;-79
2021/04/19 02:27:54;;;;;;;82.60;45.47;;;;;;;6.83;77.47;98993.13;2258806;78;21077;-79
2021/04/19 02:30:55;;;;;;;75.50;41.43;;;;;;;6.83;77.47;98993.13;2258982;78;21065;-79
2021/04/19 02:33:57;;;;;;;73.20;42.47;;;;;;;6.93;77.39;98989.08;2258664;79;21171;-79
2021/04/19 02:36:58;;;;;;;72.27;47.37;;;;;;;6.93;77.39;98989.08;2258155;78;21211;-78
2021/04/19 02:39:59;;;;;;;71.97;41.87;;;;;;;6.87;77.26;98982.00;2247217;79;21248;-79
2021/04/19 02:43:00;;;;;;;73.63;45.00;;;;;;;6.85;77.34;98982.38;2226475;80;21090;-79
2021/04/19 02:46:01;;;;;;;75.00;45.03;;;;;;;6.86;77.39;98984.13;2226554;80;21106;-79
2021/04/19 02:49:02;;;;;;;74.97;46.90;;;;;;;6.85;77.35;98979.78;2226373;80;21074;-78
2021/04/19 02:52:04;;;;;;;77.77;48.23;;;;;;;6.80;77.40;98973.58;2226359;80;21114;-78
2021/04/19 02:55:05;;;;;;;76.37;47.43;;;;;;;6.80;77.53;98973.58;2226343;79;21256;-78
2021/04/19 02:58:06;;;;;;;80.87;50.83;;;;;;;6.79;77.58;98967.05;2226361;80;21371;-80
2021/04/19 03:01:07;;;;;;;76.43;49.73;;;;;;;6.81;77.74;98968.85;2226758;80;21105;-77
2021/04/19 03:04:08;;;;;;;77.67;48.47;;;;;;;6.82;77.77;98974.50;2226471;80;21086;-78
2021/04/19 03:07:10;;;;;;;77.97;47.30;;;;;;;6.82;77.87;98969.73;2226415;80;21387;-79
2021/04/19 03:10:11;;;;;;;78.03;47.77;;;;;;;6.80;77.87;98977.47;2226805;80;21133;-79
2021/04/19 03:13:12;;;;;;;75.97;46.87;;;;;;;6.83;77.92;98972.79;2226613;80;21093;-78
2021/04/19 03:16:13;;;;;;;77.63;45.60;;;;;;;6.81;77.73;98968.85;2226361;79;21110;-78
2021/04/19 03:19:14;;;;;;;74.73;47.10;;;;;;;6.81;77.73;98968.85;2226577;80;21102;-79
2021/04/19 03:22:15;;;;;;;76.70;47.23;;;;;;;6.82;78.02;98965.42;2226855;80;21368;-79
2021/04/19 03:25:16;;;;;;;85.30;47.53;;;;;;;6.82;77.96;98967.14;2226692;80;21109;-79
2021/04/19 03:28:17;;;;;;;85.90;49.57;;;;;;;6.82;78.00;98968.44;2226945;80;21125;-78
2021/04/19 03:31:18;;;;;;;87.23;49.67;;;;;;;6.81;77.97;98966.67;2226633;80;21121;-78
2021/04/19 03:34:19;;;;;;;81.00;49.70;;;;;;;6.80;78.01;98965.80;2226377;80;21161;-78
2021/04/19 03:37:20;;;;;;;85.37;50.57;;;;;;;6.80;78.02;98963.20;2226350;80;21096;-77
2021/04/19 03:40:21;;;;;;;85.23;49.33;;;;;;;6.81;78.07;98967.55;2238305;79;21580;-77
2021/04/19 03:43:22;;;;;;;84.67;51.20;;;;;;;6.81;78.04;98963.66;2257948;79;21100;-77
2021/04/19 03:46:23;;;;;;;94.57;54.37;;;;;;;6.81;78.06;98962.78;2257765;79;21085;-77
2021/04/19 03:49:24;;;;;;;94.40;54.27;;;;;;;6.82;78.16;98962.83;2257748;79;21421;-78
2021/04/19 03:52:25;;;;;;;81.30;49.53;;;;;;;6.85;78.17;98961.62;2257815;79;21100;-77
2021/04/19 03:55:27;;;;;;;77.67;47.60;;;;;;;6.89;78.11;98965.17;2258080;79;21160;-77
2021/04/19 03:58:28;;;;;;;83.00;50.27;;;;;;;6.91;78.09;98966.09;2257968;79;21124;-78
2021/04/19 04:01:29;;;;;;;84.43;48.40;;;;;;;6.96;78.17;98964.13;2257814;79;21113;-78
2021/04/19 04:04:30;;;;;;;85.03;49.43;;;;;;;7.07;78.12;98966.14;2257833;79;21087;-78
2021/04/19 04:07:31;;;;;;;80.87;48.80;;;;;;;7.07;78.12;98966.14;2257901;79;21077;-78
2021/04/19 04:10:32;;;;;;;81.30;47.57;;;;;;;7.13;78.02;98972.80;2257861;79;21128;-78
2021/04/19 04:13:33;;;;;;;72.30;47.53;;;;;;;7.18;78.21;98970.78;2258592;79;21389;-79
2021/04/19 04:16:34;;;;;;;80.67;49.37;;;;;;;7.17;77.75;98970.33;2258453;79;21219;-78
2021/04/19 04:19:36;;;;;;;78.50;49.53;;;;;;;7.16;77.60;98965.09;2257828;78;21121;-79
2021/04/19 04:22:37;;;;;;;82.27;50.23;;;;;;;7.16;77.60;98965.09;2258431;79;21097;-79
2021/04/19 04:25:38;;;;;;;79.87;49.83;;;;;;;7.19;77.81;98974.26;2258461;79;21327;-79
2021/04/19 04:28:39;;;;;;;78.10;48.40;;;;;;;7.19;77.81;98974.26;2258231;79;21109;-78
2021/04/19 04:31:40;;;;;;;71.90;45.40;;;;;;;7.22;77.91;98970.45;2258234;78;21089;-79
2021/04/19 04:34:42;;;;;;;64.53;40.80;;;;;;;7.24;77.74;98971.37;2257990;79;21403;-76
2021/04/19 04:37:43;;;;;;;61.90;39.67;;;;;;;7.24;77.74;98971.37;2257749;78;21077;-79
2021/04/19 04:40:44;;;;;;;64.07;40.60;;;;;;;7.23;77.59;98971.79;2244898;79;21315;-78
2021/04/19 04:43:45;;;;;;;68.47;41.80;;;;;;;7.22;77.64;98975.22;2226484;80;21201;-79
2021/04/19 04:46:46;;;;;;;63.00;41.10;;;;;;;7.15;77.68;98968.11;2226340;80;21375;-78
2021/04/19 04:49:47;;;;;;;61.43;41.57;;;;;;;7.12;77.79;98972.34;2226055;80;21098;-77
2021/04/19 04:52:48;;;;;;;67.10;40.57;;;;;;;7.08;78.02;98974.39;2226610;79;21400;-79
2021/04/19 04:55:49;;;;;;;67.63;41.47;;;;;;;7.08;78.02;98974.39;2226704;80;21153;-77
2021/04/19 04:58:50;;;;;;;64.60;42.73;;;;;;;7.02;78.04;98974.68;2226259;80;21114;-77
2021/04/19 05:01:51;;;;;;;88.90;55.20;;;;;;;7.03;78.05;98979.45;2226254;80;21225;-76
2021/04/19 05:04:53;;;;;;;72.77;47.67;;;;;;;7.07;78.21;98972.63;2226223;80;21110;-77
2021/04/19 05:07:54;;;;;;;90.63;63.27;;;;;;;7.12;78.13;98987.49;2226379;80;21066;-76
2021/04/19 05:10:55;;;;;;;72.33;43.97;;;;;;;7.12;78.13;98987.49;2226392;80;21128;-78
2021/04/19 05:13:56;;;;;;;70.00;43.13;;;;;;;7.25;78.73;98974.01;2226288;80;21422;-78
2021/04/19 05:16:57;;;;;;;69.87;43.60;;;;;;;7.25;78.73;98977.91;2226268;80;21380;-76
2021/04/19 05:19:58;;;;;;;70.33;43.17;;;;;;;7.28;78.48;98982.30;2226527;80;21126;-77
2021/04/19 05:22:59;;;;;;;72.30;44.17;;;;;;;7.35;78.72;98990.30;2226488;80;21380;-78
2021/04/19 05:26:02;;;;;;;82.20;47.77;;;;;;;7.41;78.71;98996.07;2226288;80;21352;-78
2021/04/19 05:29:03;;;;;;;79.40;46.83;;;;;;;7.42;78.36;98994.35;2226235;80;21379;-77
2021/04/19 05:32:04;;;;;;;81.63;49.77;;;;;;;7.44;78.43;98992.25;2226257;80;21102;-77
2021/04/19 05:35:05;;;;;;;74.23;46.17;;;;;;;7.48;78.29;98987.59;2225891;80;21158;-77
2021/04/19 05:38:06;;;;;;;78.10;47.30;;;;;;;7.48;78.14;98979.80;2226163;80;21109;-77
2021/04/19 05:41:09;;;;;;;83.23;48.83;;;;;;;7.43;78.01;98987.90;2240105;79;21145;-77
2021/04/19 05:44:10;;;;;;;79.50;46.43;;;;;;;7.48;78.43;98990.62;2257684;79;21481;-77
2021/04/19 05:47:11;;;;;;;76.43;46.73;;;;;;;7.53;78.27;98982.11;2258118;79;21105;-78
2021/04/19 05:50:12;;;;;;;69.07;45.43;;;;;;;7.53;78.14;98978.21;2257751;79;21132;-78
2021/04/19 05:53:13;;;;;;;73.97;44.27;;;;;;;7.55;78.03;98975.23;2257800;78;21211;-77
2021/04/19 05:56:14;;;;;;;71.67;44.13;;;;;;;7.56;78.03;98974.39;2257823;79;21156;-77
2021/04/19 05:59:15;;;;;;;67.50;43.33;;;;;;;7.54;78.15;98977.37;2257611;79;21390;-76
2021/04/19 06:02:16;;;;;;;72.60;43.37;;;;;;;7.59;78.11;98975.77;2257696;79;21097;-76
2021/04/19 06:05:17;;;;;;;64.23;39.53;;;;;;;7.61;78.12;98984.90;2257926;79;21231;-80
2021/04/19 06:08:18;;;;;;;67.50;41.63;;;;;;;7.68;79.80;98983.80;2257756;79;21398;-77
2021/04/19 06:11:19;;;;;;;66.63;42.27;;;;;;;8.28;78.35;98977.05;2257794;79;21156;-77
2021/04/19 06:14:20;;;;;;;62.30;41.87;;;;;;;8.15;77.41;98973.70;2257659;78;21120;-77
2021/04/19 06:17:21;;;;;;;64.80;42.47;;;;;;;8.08;77.34;98978.31;2257863;78;21393;-76
2021/04/19 06:20:23;;;;;;;67.63;43.37;;;;;;;8.04;77.32;98974.30;2257849;79;21348;-78
2021/04/19 06:23:24;;;;;;;68.70;42.97;;;;;;;8.00;77.31;98977.25;2258115;78;21104;-78
2021/04/19 06:26:25;;;;;;;67.93;42.93;;;;;;;7.98;77.33;98977.63;2258140;79;21096;-79
2021/04/19 06:29:26;;;;;;;71.40;43.73;;;;;;;8.07;77.37;98977.85;2258216;79;21211;-77
2021/04/19 06:32:27;;;;;;;67.40;42.50;;;;;;;8.18;77.15;98980.28;2258527;79;21077;-78
2021/04/19 06:35:29;;;;;;;66.00;42.87;;;;;;;8.21;77.09;98980.35;2258237;78;21422;-78
2021/04/19 06:38:30;;;;;;;66.87;43.10;;;;;;;8.20;76.99;98975.99;2258278;79;21073;-77
2021/04/19 06:41:32;;;;;;;66.67;43.63;;;;;;;8.21;77.16;98979.47;2242966;79;21137;-78
2021/04/19 06:44:33;;;;;;;65.37;42.83;;;;;;;8.25;77.32;98982.18;2226329;80;21089;-77
2021/04/19 06:47:35;;;;;;;65.70;42.97;;;;;;;8.34;77.24;98979.37;2226522;80;21119;-78
2021/04/19 06:50:38;;;;;;;70.40;44.70;;;;;;;8.44;77.28;98970.92;2226701;80;21221;-78
2021/04/19 06:53:39;;;;;;;62.60;42.67;;;;;;;8.62;77.26;98979.13;2226581;80;21094;-77
2021/04/19 06:56:40;;;;;;;62.73;41.63;;;;;;;8.82;76.93;98975.26;2226463;80;21082;-78
2021/04/19 06:59:41;;;;;;;72.77;46.10;;;;;;;9.00;76.71;98972.58;2226526;80;21094;-78
2021/04/19 07:02:42;;;;;;;62.23;42.83;;;;;;;9.27;76.73;98975.72;2225914;80;21309;-77
2021/04/19 07:05:44;;;;;;;63.03;43.20;;;;;;;9.50;76.46;98973.53;2225984;79;21121;-78
2021/04/19 07:08:48;;;;;;;58.07;40.13;;;;;;;9.78;76.02;98975.80;2226052;80;21098;-78
2021/04/19 07:11:49;;;;;;;87.45;44.10;;;;;;;10.08;75.76;98978.03;2226127;80;21125;-77
2021/04/19 07:14:50;;;;;;;53.87;37.10;;;;;;;10.31;75.22;98977.12;2225826;80;21410;-79
2021/04/19 07:17:51;;;;;;;51.37;35.20;;;;;;;10.46;74.95;98970.84;2226742;80;21129;-77
2021/04/19 07:20:52;;;;;;;54.77;36.70;;;;;;;10.71;74.48;98972.48;2226135;80;21114;-77
2021/04/19 07:23:53;;;;;;;64.23;44.83;;;;;;;11.04;74.15;98968.99;2226019;80;21400;-77
2021/04/19 07:26:54;;;;;;;52.53;37.88;;;;;;;11.30;73.75;98973.67;2226234;80;21089;-77
2021/04/19 07:29:55;;;;;;;48.50;33.42;;;;;;;11.49;73.58;98969.08;2226459;80;21114;-77
2021/04/19 07:32:57;;;;;;;53.23;38.08;;;;;;;11.81;73.31;98972.03;2226548;80;21093;-77
2021/04/19 07:35:58;;;;;;;58.75;45.83;;;;;;;12.03;72.78;98963.94;2226315;79;21102;-76
2021/04/19 07:38:59;;;;;;;41.58;32.30;;;;;;;12.16;72.92;98968.86;2226099;80;21113;-76
2021/04/19 07:42:00;;;;;;;45.03;35.00;;;;;;;12.12;72.01;98968.80;2226165;79;21160;-76
2021/04/19 07:45:01;;;;;;;40.15;31.87;;;;;;;12.17;72.38;98975.84;2226612;80;21086;-76
2021/04/19 07:48:02;;;;;;;41.60;32.45;;;;;;;11.92;71.83;98977.36;2226577;80;21122;-77
2021/04/19 07:51:04;;;;;;;55.40;43.40;;;;;;;11.69;72.16;98983.23;2226546;80;21106;-77
2021/04/19 07:54:05;;;;;;;42.53;33.15;;;;;;;11.69;72.45;98982.35;2226179;80;21284;-76
2021/04/19 07:57:07;;;;;;;57.48;42.43;;;;;;;11.71;72.31;98976.70;2226531;79;21102;-76
2021/04/19 08:00:11;;;;;;;46.25;37.50;;;;;;;11.63;72.47;98976.62;2226528;80;21410;-77
2021/04/19 08:03:13;;;;;;;42.10;34.63;;;;;;;11.55;72.39;98973.06;2226220;80;21119;-77
2021/04/19 08:06:14;;;;;;;56.60;37.67;;;;;;;11.51;72.39;98971.71;2226267;80;21105;-77
2021/04/19 08:09:16;;;;;;;38.65;31.57;;;;;;;11.52;72.55;98969.55;2226215;80;21090;-77
2021/04/19 08:12:17;;;;;;;47.87;38.70;;;;;;;11.46;72.01;98968.62;2226486;80;21106;-77
2021/04/19 08:15:18;;;;;;;59.50;40.70;;;;;;;11.35;72.46;98972.86;2226224;80;21153;-78
2021/04/19 08:18:19;;;;;;;53.23;37.70;;;;;;;11.37;72.62;98971.14;2226308;79;21216;-77
2021/04/19 08:21:20;;;;;;;47.48;32.70;;;;;;;11.38;72.74;98968.97;2226385;80;21101;-79
2021/04/19 08:24:21;;;;;;;37.67;29.63;;;;;;;11.43;72.79;98963.36;2226227;80;21117;-77
2021/04/19 08:27:22;;;;;;;42.90;32.78;;;;;;;11.46;72.26;98960.78;2226271;80;21407;-77
2021/04/19 08:30:23;;;;;;;45.00;34.27;;;;;;;11.43;72.12;98962.05;2226205;80;21074;-77
2021/04/19 08:33:25;;;;;;;39.98;32.85;;;;;;;11.53;72.28;98957.80;2226302;79;21114;-76
2021/04/19 08:36:26;;;;;;;41.40;32.23;;;;;;;11.73;72.23;98954.06;2226366;80;21514;-77
2021/04/19 08:39:27;;;;;;;37.48;29.55;;;;;;;11.75;71.20;98956.25;2226438;80;21098;-77
2021/04/19 08:42:28;;;;;;;50.00;35.45;;;;;;;11.72;71.77;98953.19;2226325;79;21140;-77
2021/04/19 08:45:29;;;;;;;34.63;28.42;;;;;;;11.75;71.87;98956.25;2226405;79;21090;-78
2021/04/19 08:48:30;;;;;;;44.20;29.55;;;;;;;11.88;71.62;98955.53;2226551;80;21117;-77
2021/04/19 08:51:31;;;;;;;32.35;26.62;;;;;;;12.05;71.42;98956.54;2226154;79;21097;-78
2021/04/19 08:54:32;;;;;;;34.00;27.00;;;;;;;12.40;71.21;98949.40;2226169;80;21404;-76
2021/04/19 08:57:33;;;;;;;33.55;25.25;;;;;;;12.92;69.77;98953.59;2226334;80;21105;-77
2021/04/19 09:00:34;;;;;;;29.75;24.95;;;;;;;13.26;68.96;98950.72;2226288;80;21081;-77
2021/04/19 09:03:35;;;;;;;30.37;25.27;;;;;;;13.52;67.82;98946.84;2226207;80;21212;-80
2021/04/19 09:06:37;;;;;;;26.37;22.85;;;;;;;13.74;66.87;98939.88;2226234;80;21356;-77
2021/04/19 09:09:39;;;;;;;23.47;21.00;;;;;;;13.98;66.51;98940.78;2226745;80;21090;-78
2021/04/19 09:12:40;;;;;;;21.50;17.57;;;;;;;14.46;66.42;98935.50;2226697;80;21122;-78
2021/04/19 09:15:41;;;;;;;21.60;18.70;;;;;;;14.88;64.21;98931.46;2226737;80;21134;-77
2021/04/19 09:18:42;;;;;;;24.98;19.17;;;;;;;15.25;62.26;98924.27;2226418;80;21066;-77
2021/04/19 09:21:43;;;;;;;18.40;16.50;;;;;;;15.37;63.58;98914.55;2226310;80;21110;-77
2021/04/19 09:24:44;;;;;;;20.02;16.70;;;;;;;15.46;61.28;98917.13;2226455;79;21066;-78
2021/04/19 09:27:46;;;;;;;18.30;14.28;;;;;;;15.55;60.72;98916.63;2226669;80;21082;-77
2021/04/19 09:30:47;;;;;;;17.20;14.18;;;;;;;15.46;57.84;98906.61;2226508;80;21109;-76
2021/04/19 09:33:48;;;;;;;15.05;12.55;;;;;;;15.17;60.03;98914.67;2226511;80;21070;-77
2021/04/19 09:36:49;;;;;;;13.93;12.20;;;;;;;15.13;60.14;98903.30;2226339;80;21114;-78
2021/04/19 09:39:50;;;;;;;10.43;9.43;;;;;;;15.48;60.06;98891.24;2226325;80;21407;-77
2021/04/19 09:42:51;;;;;;;11.55;8.75;;;;;;;15.60;56.95;98882.02;2226384;79;21439;-77
2021/04/19 09:45:53;;;;;;;9.80;8.83;;;;;;;15.88;58.36;98875.20;2226463;80;21102;-76
2021/04/19 09:48:54;;;;;;;11.50;8.43;;;;;;;16.24;57.11;98876.60;2226407;80;21125;-78
2021/04/19 09:51:55;;;;;;;8.15;7.35;;;;;;;16.29;54.75;98881.83;2226510;80;21105;-77
2021/04/19 09:54:56;;;;;;;16.62;9.95;;;;;;;16.04;52.39;98871.98;2226750;80;21134;-78
2021/04/19 09:57:57;;;;;;;8.95;7.35;;;;;;;16.04;52.94;98873.30;2226540;79;21102;-78
2021/04/19 10:00:59;;;;;;;6.30;5.70;;;;;;;16.05;53.68;98879.86;2226520;79;21224;-77
2021/04/19 10:04:00;;;;;;;8.40;6.25;;;;;;;16.27;54.13;98868.67;2226466;80;21129;-78
2021/04/19 10:07:01;;;;;;;7.45;5.67;;;;;;;16.38;49.48;98877.77;2226540;80;21121;-77
2021/04/19 10:10:02;;;;;;;5.33;4.83;;;;;;;16.68;51.15;98863.44;2226612;80;21118;-77
2021/04/19 10:13:03;;;;;;;78.95;12.80;;;;;;;16.82;49.04;98867.64;2226514;80;21062;-77
2021/04/19 10:16:04;;;;;;;11.10;6.62;;;;;;;16.49;48.19;98868.02;2226253;80;21427;-76
2021/04/19 10:19:05;;;;;;;4.90;4.40;;;;;;;16.15;47.69;98873.63;2226433;79;21124;-77
2021/04/19 10:22:07;;;;;;;7.70;4.83;;;;;;;15.92;47.46;98870.34;2226303;80;21491;-78
2021/04/19 10:25:08;;;;;;;4.80;3.87;;;;;;;15.60;48.69;98857.42;2225738;80;21078;-77
2021/04/19 10:28:09;;;;;;;9.05;4.20;;;;;;;15.87;48.87;98860.30;2226263;80;21113;-77
2021/04/19 10:31:10;;;;;;;7.58;4.10;;;;;;;16.42;48.38;98854.45;2226181;79;21391;-78
2021/04/19 10:34:12;;;;;;;4.62;4.12;;;;;;;16.39;45.07;98851.86;2226794;80;21546;-78
2021/04/19 10:37:13;;;;;;;5.30;4.20;;;;;;;16.22;46.06;98849.41;2226560;80;21078;-77
2021/04/19 10:40:14;;;;;;;6.28;5.05;;;;;;;16.01;44.76;98860.16;2226476;80;21114;-77
2021/04/19 10:43:15;;;;;;;5.30;4.22;;;;;;;15.81;46.40;98859.91;2247958;79;21152;-77
2021/04/19 10:46:17;;;;;;;5.83;4.10;;;;;;;15.74;46.14;98850.32;2257221;78;21348;-77
2021/04/19 10:49:18;;;;;;;5.42;4.35;;;;;;;15.92;47.60;98847.96;2258271;79;21171;-78
2021/04/19 10:52:19;;;;;;;7.03;5.00;;;;;;;16.01;46.56;98850.95;2257520;78;21433;-77
2021/04/19 10:55:20;;;;;;;13.53;5.80;;;;;;;16.07;44.33;98848.25;2257433;79;21145;-78
2021/04/19 10:58:21;;;;;;;4.92;4.05;;;;;;;16.21;44.71;98845.91;2257630;78;21104;-77
2021/04/19 11:01:22;;;;;;;4.60;3.85;;;;;;;16.66;43.07;98838.86;2258061;79;21408;-78
2021/04/19 11:04:23;;;;;;;4.60;4.03;;;;;;;17.00;44.09;98852.02;2258066;79;21497;-77
2021/04/19 11:07:24;;;;;;;5.20;4.10;;;;;;;17.25;42.40;98843.76;2258030;78;21136;-77
2021/04/19 11:10:25;;;;;;;4.95;4.45;;;;;;;17.55;41.32;98838.48;2258194;79;21061;-77
2021/04/19 11:13:26;;;;;;;4.87;3.80;;;;;;;17.67;41.02;98840.50;2258430;78;21101;-77
2021/04/19 11:16:28;;;;;;;3.80;3.47;;;;;;;18.01;42.04;98839.91;2258391;79;21140;-77
2021/04/19 11:19:29;;;;;;;9.80;3.65;;;;;;;18.35;40.92;98837.55;2258312;79;21101;-77
2021/04/19 11:22:30;;;;;;;14.98;4.05;;;;;;;18.58;39.12;98823.41;2258210;79;21093;-77
2021/04/19 11:25:31;;;;;;;8.18;3.40;;;;;;;18.77;40.77;98823.48;2258498;79;21109;-78
2021/04/19 11:28:34;;;;;;;5.90;3.30;;;;;;;18.99;38.97;98821.23;2259502;79;21097;-78
2021/04/19 11:31:35;;;;;;;6.22;3.30;;;;;;;18.89;38.51;98824.98;2258254;79;21112;-79
2021/04/19 11:34:36;;;;;;;3.62;3.27;;;;;;;18.88;38.93;98827.66;2258280;79;21124;-77
2021/04/19 11:37:40;;;;;;;9.75;2.62;;;;;;;18.47;38.93;98824.08;2258409;79;21086;-76
2021/04/19 11:40:41;;;;;;;5.85;3.87;;;;;;;18.32;39.77;98820.42;2257694;79;21097;-77
2021/04/19 11:43:43;;;;;;;5.95;4.22;;;;;;;18.40;37.65;98815.86;2238573;78;21133;-78
2021/04/19 11:46:44;;;;;;;4.78;2.80;;;;;;;18.70;39.22;98814.39;2256818;79;21121;-76
2021/04/19 11:49:45;;;;;;;8.88;3.12;;;;;;;19.09;37.99;98817.95;2258249;79;21128;-77
2021/04/19 11:52:47;;;;;;;11.70;3.33;;;;;;;19.02;36.85;98825.13;2258149;79;21390;-77
2021/04/19 11:55:48;;;;;;;5.85;3.70;;;;;;;18.76;38.17;98826.16;2257773;79;21105;-77
2021/04/19 11:58:49;;;;;;;6.05;2.98;;;;;;;18.63;37.54;98825.99;2258110;79;21219;-78
2021/04/19 12:01:50;;;;;;;4.60;2.92;;;;;;;18.45;37.91;98824.11;2257592;79;21084;-77
2021/04/19 12:04:51;;;;;;;5.22;2.90;;;;;;;18.40;39.35;98825.98;2258248;79;21108;-77
2021/04/19 12:07:52;;;;;;;3.77;2.65;;;;;;;18.33;39.14;98828.33;2258165;79;21072;-78
2021/04/19 12:10:54;;;;;;;58.20;7.62;;;;;;;18.19;37.51;98822.41;2257952;79;21760;-76
2021/04/19 12:13:59;;;;;;;3.65;3.05;;;;;;;18.10;38.54;98820.80;2258232;79;21109;-79
2021/04/19 12:17:00;;;;;;;6.53;3.27;;;;;;;18.13;38.63;98815.47;2258580;79;21089;-79
2021/04/19 12:20:02;;;;;;;7.40;2.67;;;;;;;18.23;39.63;98816.19;2258397;79;21382;-77
2021/04/19 12:23:03;;;;;;;4.75;3.17;;;;;;;18.21;38.57;98813.16;2259072;78;21140;-78
2021/04/19 12:26:04;;;;;;;6.00;3.00;;;;;;;18.17;38.79;98809.67;2258843;79;21215;-80
2021/04/19 12:29:06;;;;;;;3.58;2.55;;;;;;;18.05;38.23;98810.78;2258124;79;21402;-76
2021/04/19 12:32:07;;;;;;;8.40;3.67;;;;;;;18.14;39.40;98800.48;2257950;78;21100;-77
2021/04/19 12:35:08;;;;;;;55.08;5.28;;;;;;;18.57;39.66;98791.73;2257597;79;21148;-77
2021/04/19 12:38:09;;;;;;;3.77;3.37;;;;;;;18.68;39.07;98801.66;2258270;79;21128;-79
2021/04/19 12:41:10;;;;;;;3.92;3.08;;;;;;;18.55;39.15;98796.17;2258282;79;21136;-79
2021/04/19 12:44:11;;;;;;;20.00;4.20;;;;;;;18.27;38.09;98802.02;2258236;78;21096;-76
2021/04/19 12:47:13;;;;;;;4.70;3.83;;;;;;;18.20;38.90;98799.05;2234805;78;21125;-78
2021/04/19 12:50:14;;;;;;;5.10;3.33;;;;;;;17.95;37.95;98803.05;2226698;80;21387;-79
2021/04/19 12:53:16;;;;;;;183.30;13.68;;;;;;;17.72;39.34;98800.38;2227216;80;21111;-78
2021/04/19 12:56:17;;;;;;;5.70;3.30;;;;;;;17.42;38.46;98805.70;2227619;80;21141;-81
2021/04/19 12:59:18;;;;;;;3.50;3.17;;;;;;;17.31;39.17;98804.96;2228021;80;21130;-80
2021/04/19 13:02:19;;;;;;;4.58;2.77;;;;;;;17.41;40.42;98793.40;2227130;80;21376;-80
2021/04/19 13:05:20;;;;;;;3.52;3.10;;;;;;;17.91;38.18;98797.41;2227823;80;21070;-79
2021/04/19 13:08:21;;;;;;;5.12;2.77;;;;;;;18.08;37.67;98800.60;2228124;80;21097;-80
2021/04/19 13:11:22;;;;;;;3.42;3.12;;;;;;;17.96;37.54;98796.42;2227961;80;21125;-81
2021/04/19 13:14:24;;;;;;;4.62;3.60;;;;;;;17.68;37.90;98800.01;2227396;80;21133;-80
2021/04/19 13:17:29;;;;;;;6.55;3.20;;;;;;;17.71;38.77;98791.16;2227326;80;21129;-80
2021/04/19 13:20:33;;;;;;;6.72;3.70;;;;;;;17.77;38.49;98791.92;2227564;80;21201;-80
2021/04/19 13:23:34;;;;;;;6.00;3.98;;;;;;;17.55;38.03;98797.13;2227492;79;21390;-81
2021/04/19 13:26:36;;;;;;;3.60;3.00;;;;;;;17.34;38.92;98796.13;2227421;79;21227;-80
2021/04/19 13:29:37;;;;;;;187.10;17.48;;;;;;;17.30;39.45;98799.27;2227651;79;21118;-77
2021/04/19 13:32:38;;;;;;;6.15;3.45;;;;;;;17.28;39.72;98793.59;2226785;80;21100;-80
2021/04/19 13:35:39;;;;;;;5.08;4.10;;;;;;;17.44;40.61;98792.48;2227540;80;21138;-81
2021/04/19 13:38:40;;;;;;;8.23;4.53;;;;;;;17.71;38.89;98787.20;2227625;80;21126;-79
2021/04/19 13:41:41;;;;;;;5.62;3.27;;;;;;;18.05;39.67;98788.78;2227075;80;21130;-79
2021/04/19 13:44:42;;;;;;;31.95;5.33;;;;;;;17.83;37.37;98790.50;2227158;80;21116;-80
2021/04/19 13:47:44;;;;;;;5.03;3.42;;;;;;;17.68;38.40;98785.94;2252998;79;21259;-80
2021/04/19 13:50:45;;;;;;;4.70;3.00;;;;;;;17.62;37.78;98778.97;2258737;79;21104;-79
2021/04/19 13:53:46;;;;;;;4.85;3.30;;;;;;;17.70;39.39;98782.83;2259285;78;21104;-80
2021/04/19 13:56:47;;;;;;;4.33;3.22;;;;;;;17.55;38.23;98794.48;2259383;79;21139;-80
2021/04/19 13:59:49;;;;;;;4.35;3.65;;;;;;;17.42;38.86;98782.39;2259716;79;21125;-80
2021/04/19 14:02:51;;;;;;;5.70;3.35;;;;;;;17.35;39.39;98781.63;2259466;79;21109;-80